sensor_id;sensor_type;location;lat;lon;timestamp;pressure;altitude;pressure_sealevel;temperature;humidity
32452;BME280;45528;52.102;5.242;2023-03-04T00:00:09;102293.0;;;12.59;49.72
32452;BME280;45528;52.102;5.242;2023-03-04T00:03:22;102294.0;;;12.67;49.48
32452;BME280;45528;52.102;5.242;2023-03-04T00:04:58;102297.0;;;12.22;50.96
32452;BME280;45528;52.102;5.242;2023-03-04T00:06:35;102296.0;;;12.55;49.93
32452;BME280;45528;52.102;5.242;2023-03-04T00:09:47;102305.0;;;12.34;50.88
32452;BME280;45528;52.102;5.242;2023-03-04T00:11:23;102300.0;;;12.17;50.94
32452;BME280;45528;52.102;5.242;2023-03-04T00:12:59;102302.0;;;12.33;51.08
32452;BME280;45528;52.102;5.242;2023-03-04T00:14:35;102298.0;;;12.1;51.41
32452;BME280;45528;52.102;5.242;2023-03-04T00:17:48;102300.0;;;12.41;50.0
32452;BME280;45528;52.102;5.242;2023-03-04T00:19:24;102298.0;;;12.08;51.12
32452;BME280;45528;52.102;5.242;2023-03-04T00:21:00;102293.0;;;12.07;51.48
32452;BME280;45528;52.102;5.242;2023-03-04T00:24:12;102292.0;;;12.32;50.66
32452;BME280;45528;52.102;5.242;2023-03-04T00:25:48;102291.0;;;12.49;50.37
32452;BME280;45528;52.102;5.242;2023-03-04T00:27:24;102297.0;;;12.38;50.44
32452;BME280;45528;52.102;5.242;2023-03-04T00:30:37;102298.0;;;12.42;50.66
32452;BME280;45528;52.102;5.242;2023-03-04T00:32:13;102300.0;;;12.54;50.37
32452;BME280;45528;52.102;5.242;2023-03-04T00:33:49;102300.0;;;12.61;50.1
32452;BME280;45528;52.102;5.242;2023-03-04T00:37:01;102296.0;;;12.43;50.54
32452;BME280;45528;52.102;5.242;2023-03-04T00:38:38;102298.0;;;12.31;50.91
32452;BME280;45528;52.102;5.242;2023-03-04T00:40:14;102301.0;;;12.24;50.99
32452;BME280;45528;52.102;5.242;2023-03-04T00:41:50;102293.0;;;12.53;50.69
32452;BME280;45528;52.102;5.242;2023-03-04T00:45:02;102296.0;;;12.52;50.93
32452;BME280;45528;52.102;5.242;2023-03-04T00:46:39;102294.0;;;12.56;50.52
32452;BME280;45528;52.102;5.242;2023-03-04T00:48:15;102295.0;;;12.56;50.69
32452;BME280;45528;52.102;5.242;2023-03-04T00:51:27;102297.0;;;12.55;50.51
32452;BME280;45528;52.102;5.242;2023-03-04T00:53:04;102298.0;;;12.39;50.84
32452;BME280;45528;52.102;5.242;2023-03-04T00:54:41;102297.0;;;12.59;50.27
32452;BME280;45528;52.102;5.242;2023-03-04T00:57:53;102305.0;;;12.73;49.96
32452;BME280;45528;52.102;5.242;2023-03-04T00:59:29;102302.0;;;12.8;49.87
32452;BME280;45528;52.102;5.242;2023-03-04T01:01:05;102298.0;;;12.66;49.94
32452;BME280;45528;52.102;5.242;2023-03-04T01:02:42;102302.0;;;12.17;51.37
32452;BME280;45528;52.102;5.242;2023-03-04T01:05:55;102297.0;;;12.5;50.88
32452;BME280;45528;52.102;5.242;2023-03-04T01:07:31;102300.0;;;12.65;50.7
32452;BME280;45528;52.102;5.242;2023-03-04T01:09:07;102303.0;;;12.17;51.02
32452;BME280;45528;52.102;5.242;2023-03-04T01:12:19;102299.0;;;12.68;50.44
32452;BME280;45528;52.102;5.242;2023-03-04T01:13:55;102301.0;;;12.44;50.85
32452;BME280;45528;52.102;5.242;2023-03-04T01:15:32;102301.0;;;12.27;51.27
32452;BME280;45528;52.102;5.242;2023-03-04T01:18:44;102301.0;;;12.56;50.56
32452;BME280;45528;52.102;5.242;2023-03-04T01:20:20;102303.0;;;12.59;50.48
32452;BME280;45528;52.102;5.242;2023-03-04T01:21:56;102299.0;;;12.21;50.95
32452;BME280;45528;52.102;5.242;2023-03-04T01:25:09;102297.0;;;12.19;51.15
32452;BME280;45528;52.102;5.242;2023-03-04T01:26:46;102297.0;;;12.34;51.01
32452;BME280;45528;52.102;5.242;2023-03-04T01:28:23;102296.0;;;12.56;50.39
32452;BME280;45528;52.102;5.242;2023-03-04T01:29:59;102287.0;;;12.49;50.44
32452;BME280;45528;52.102;5.242;2023-03-04T01:33:11;102283.0;;;11.85;51.46
32452;BME280;45528;52.102;5.242;2023-03-04T01:34:47;102285.0;;;12.39;50.08
32452;BME280;45528;52.102;5.242;2023-03-04T01:36:24;102283.0;;;12.04;50.6
32452;BME280;45528;52.102;5.242;2023-03-04T01:39:36;102276.0;;;11.97;50.87
32452;BME280;45528;52.102;5.242;2023-03-04T01:41:12;102273.0;;;12.32;50.1
32452;BME280;45528;52.102;5.242;2023-03-04T01:42:52;102275.0;;;12.47;49.49
32452;BME280;45528;52.102;5.242;2023-03-04T01:46:05;102275.0;;;12.55;49.15
32452;BME280;45528;52.102;5.242;2023-03-04T01:47:43;102272.0;;;12.35;49.65
32452;BME280;45528;52.102;5.242;2023-03-04T01:49:22;102267.0;;;12.15;50.2
32452;BME280;45528;52.102;5.242;2023-03-04T01:50:58;102262.0;;;12.41;49.63
32452;BME280;45528;52.102;5.242;2023-03-04T01:54:19;102261.0;;;12.26;49.62
32452;BME280;45528;52.102;5.242;2023-03-04T01:56:00;102259.0;;;12.59;48.79
32452;BME280;45528;52.102;5.242;2023-03-04T01:57:38;102258.0;;;12.59;48.92
32452;BME280;45528;52.102;5.242;2023-03-04T01:59:16;102258.0;;;12.59;49.09
32452;BME280;45528;52.102;5.242;2023-03-04T02:02:31;102255.0;;;12.68;48.61
32452;BME280;45528;52.102;5.242;2023-03-04T02:04:07;102248.0;;;12.53;48.99
32452;BME280;45528;52.102;5.242;2023-03-04T02:05:48;102248.0;;;12.57;49.19
32452;BME280;45528;52.102;5.242;2023-03-04T02:09:00;102246.0;;;12.4;49.32
32452;BME280;45528;52.102;5.242;2023-03-04T02:10:37;102244.0;;;12.46;49.39
32452;BME280;45528;52.102;5.242;2023-03-04T02:12:14;102242.0;;;12.1;49.61
32452;BME280;45528;52.102;5.242;2023-03-04T02:15:28;102241.0;;;12.23;50.01
32452;BME280;45528;52.102;5.242;2023-03-04T02:17:08;102243.0;;;12.34;49.72
32452;BME280;45528;52.102;5.242;2023-03-04T02:18:45;102231.0;;;11.89;50.5
32452;BME280;45528;52.102;5.242;2023-03-04T02:20:32;102234.0;;;11.83;50.59
32452;BME280;45528;52.102;5.242;2023-03-04T02:22:13;102225.0;;;12.27;49.88
32452;BME280;45528;52.102;5.242;2023-03-04T02:25:40;102227.0;;;12.41;49.25
32452;BME280;45528;52.102;5.242;2023-03-04T02:27:20;102227.0;;;12.14;49.49
32452;BME280;45528;52.102;5.242;2023-03-04T02:28:57;102220.0;;;12.39;49.26
32452;BME280;45528;52.102;5.242;2023-03-04T02:32:12;102223.0;;;12.36;49.35
32452;BME280;45528;52.102;5.242;2023-03-04T02:33:49;102217.0;;;12.37;49.54
32452;BME280;45528;52.102;5.242;2023-03-04T02:35:26;102218.0;;;12.3;49.2
32452;BME280;45528;52.102;5.242;2023-03-04T02:37:02;102220.0;;;12.29;49.35
32452;BME280;45528;52.102;5.242;2023-03-04T02:40:20;102218.0;;;12.39;49.33
32452;BME280;45528;52.102;5.242;2023-03-04T02:42:00;102215.0;;;12.45;49.16
32452;BME280;45528;52.102;5.242;2023-03-04T02:43:37;102213.0;;;12.25;49.3
32452;BME280;45528;52.102;5.242;2023-03-04T02:45:33;102208.0;;;12.55;48.98
32452;BME280;45528;52.102;5.242;2023-03-04T02:48:49;102209.0;;;12.46;48.84
32452;BME280;45528;52.102;5.242;2023-03-04T02:50:28;102203.0;;;12.23;49.8
32452;BME280;45528;52.102;5.242;2023-03-04T02:52:10;102207.0;;;12.38;49.22
32452;BME280;45528;52.102;5.242;2023-03-04T02:53:47;102200.0;;;12.51;48.78
32452;BME280;45528;52.102;5.242;2023-03-04T02:57:01;102198.0;;;12.47;48.92
32452;BME280;45528;52.102;5.242;2023-03-04T02:58:39;102197.0;;;12.6;48.66
32452;BME280;45528;52.102;5.242;2023-03-04T03:00:15;102205.0;;;12.42;49.27
32452;BME280;45528;52.102;5.242;2023-03-04T03:03:28;102201.0;;;12.54;49.36
32452;BME280;45528;52.102;5.242;2023-03-04T03:05:05;102205.0;;;12.44;49.36
32452;BME280;45528;52.102;5.242;2023-03-04T03:06:42;102201.0;;;11.98;50.13
32452;BME280;45528;52.102;5.242;2023-03-04T03:08:18;102206.0;;;12.12;49.99
32452;BME280;45528;52.102;5.242;2023-03-04T03:11:31;102203.0;;;12.28;49.51
32452;BME280;45528;52.102;5.242;2023-03-04T03:13:07;102201.0;;;11.92;50.11
32452;BME280;45528;52.102;5.242;2023-03-04T03:14:43;102193.0;;;12.26;49.91
32452;BME280;45528;52.102;5.242;2023-03-04T03:17:55;102196.0;;;12.28;49.58
32452;BME280;45528;52.102;5.242;2023-03-04T03:19:32;102192.0;;;12.41;49.45
32452;BME280;45528;52.102;5.242;2023-03-04T03:21:09;102187.0;;;12.46;49.27
32452;BME280;45528;52.102;5.242;2023-03-04T03:24:22;102187.0;;;12.43;49.42
32452;BME280;45528;52.102;5.242;2023-03-04T03:25:58;102193.0;;;12.08;50.0
32452;BME280;45528;52.102;5.242;2023-03-04T03:27:35;102187.0;;;12.46;49.35
32452;BME280;45528;52.102;5.242;2023-03-04T03:29:10;102186.0;;;12.51;49.09
32452;BME280;45528;52.102;5.242;2023-03-04T03:32:23;102180.0;;;12.55;49.41
32452;BME280;45528;52.102;5.242;2023-03-04T03:33:59;102184.0;;;12.61;48.8
32452;BME280;45528;52.102;5.242;2023-03-04T03:35:35;102183.0;;;12.49;49.28
32452;BME280;45528;52.102;5.242;2023-03-04T03:38:48;102178.0;;;12.37;49.26
32452;BME280;45528;52.102;5.242;2023-03-04T03:40:24;102181.0;;;12.44;49.19
32452;BME280;45528;52.102;5.242;2023-03-04T03:42:00;102178.0;;;12.44;49.31
32452;BME280;45528;52.102;5.242;2023-03-04T03:45:13;102178.0;;;12.41;49.81
32452;BME280;45528;52.102;5.242;2023-03-04T03:46:49;102182.0;;;12.33;49.98
32452;BME280;45528;52.102;5.242;2023-03-04T03:48:25;102184.0;;;12.48;49.63
32452;BME280;45528;52.102;5.242;2023-03-04T03:51:38;102184.0;;;12.47;49.51
32452;BME280;45528;52.102;5.242;2023-03-04T03:53:15;102183.0;;;12.51;49.56
32452;BME280;45528;52.102;5.242;2023-03-04T03:54:51;102182.0;;;12.55;49.36
32452;BME280;45528;52.102;5.242;2023-03-04T03:56:27;102183.0;;;12.55;49.75
32452;BME280;45528;52.102;5.242;2023-03-04T03:59:39;102189.0;;;12.3;50.16
32452;BME280;45528;52.102;5.242;2023-03-04T04:01:15;102193.0;;;12.39;50.45
32452;BME280;45528;52.102;5.242;2023-03-04T04:02:52;102186.0;;;12.26;51.07
32452;BME280;45528;52.102;5.242;2023-03-04T04:06:06;102186.0;;;12.04;52.03
32452;BME280;45528;52.102;5.242;2023-03-04T04:07:42;102188.0;;;12.04;52.02
32452;BME280;45528;52.102;5.242;2023-03-04T04:09:18;102188.0;;;12.21;51.64
32452;BME280;45528;52.102;5.242;2023-03-04T04:12:31;102187.0;;;12.34;51.24
32452;BME280;45528;52.102;5.242;2023-03-04T04:14:08;102185.0;;;12.17;51.82
32452;BME280;45528;52.102;5.242;2023-03-04T04:15:46;102190.0;;;12.13;51.77
32452;BME280;45528;52.102;5.242;2023-03-04T04:17:22;102189.0;;;12.11;51.52
32452;BME280;45528;52.102;5.242;2023-03-04T04:20:35;102193.0;;;11.96;51.9
32452;BME280;45528;52.102;5.242;2023-03-04T04:22:13;102191.0;;;11.93;51.75
32452;BME280;45528;52.102;5.242;2023-03-04T04:23:50;102193.0;;;12.24;51.04
32452;BME280;45528;52.102;5.242;2023-03-04T04:27:03;102195.0;;;12.45;50.42
32452;BME280;45528;52.102;5.242;2023-03-04T04:28:39;102194.0;;;12.36;50.7
32452;BME280;45528;52.102;5.242;2023-03-04T04:30:16;102191.0;;;12.36;50.76
32452;BME280;45528;52.102;5.242;2023-03-04T04:33:28;102191.0;;;12.36;50.74
32452;BME280;45528;52.102;5.242;2023-03-04T04:35:06;102197.0;;;12.35;51.58
32452;BME280;45528;52.102;5.242;2023-03-04T04:36:42;102191.0;;;12.25;51.4
32452;BME280;45528;52.102;5.242;2023-03-04T04:38:19;102197.0;;;12.36;50.98
32452;BME280;45528;52.102;5.242;2023-03-04T04:41:35;102193.0;;;11.83;52.53
32452;BME280;45528;52.102;5.242;2023-03-04T04:43:12;102191.0;;;11.46;53.37
32452;BME280;45528;52.102;5.242;2023-03-04T04:44:48;102195.0;;;11.75;53.22
32452;BME280;45528;52.102;5.242;2023-03-04T04:48:02;102197.0;;;12.29;52.0
32452;BME280;45528;52.102;5.242;2023-03-04T04:49:38;102196.0;;;12.43;51.79
32452;BME280;45528;52.102;5.242;2023-03-04T04:51:14;102198.0;;;12.4;52.24
32452;BME280;45528;52.102;5.242;2023-03-04T04:54:27;102195.0;;;12.34;52.3
32452;BME280;45528;52.102;5.242;2023-03-04T04:56:12;102197.0;;;12.33;52.5
32452;BME280;45528;52.102;5.242;2023-03-04T04:57:49;102194.0;;;12.33;52.64
32452;BME280;45528;52.102;5.242;2023-03-04T04:59:25;102192.0;;;12.21;53.01
32452;BME280;45528;52.102;5.242;2023-03-04T05:02:39;102193.0;;;12.27;53.1
32452;BME280;45528;52.102;5.242;2023-03-04T05:04:15;102194.0;;;12.35;52.82
32452;BME280;45528;52.102;5.242;2023-03-04T05:05:51;102194.0;;;12.33;53.06
32452;BME280;45528;52.102;5.242;2023-03-04T05:09:03;102186.0;;;12.4;52.76
32452;BME280;45528;52.102;5.242;2023-03-04T05:10:39;102188.0;;;12.41;52.82
32452;BME280;45528;52.102;5.242;2023-03-04T05:12:16;102189.0;;;12.31;53.31
32452;BME280;45528;52.102;5.242;2023-03-04T05:13:52;102193.0;;;12.23;53.31
32452;BME280;45528;52.102;5.242;2023-03-04T05:17:05;102194.0;;;12.24;53.2
32452;BME280;45528;52.102;5.242;2023-03-04T05:18:42;102189.0;;;12.3;53.07
32452;BME280;45528;52.102;5.242;2023-03-04T05:20:17;102192.0;;;12.32;53.04
32452;BME280;45528;52.102;5.242;2023-03-04T05:23:32;102192.0;;;12.3;53.04
32452;BME280;45528;52.102;5.242;2023-03-04T05:25:09;102195.0;;;12.3;53.13
32452;BME280;45528;52.102;5.242;2023-03-04T05:26:45;102192.0;;;12.26;53.33
32452;BME280;45528;52.102;5.242;2023-03-04T05:29:58;102198.0;;;12.3;53.12
32452;BME280;45528;52.102;5.242;2023-03-04T05:31:34;102194.0;;;11.94;53.93
32452;BME280;45528;52.102;5.242;2023-03-04T05:33:12;102200.0;;;12.23;53.38
32452;BME280;45528;52.102;5.242;2023-03-04T05:34:50;102197.0;;;12.2;53.67
32452;BME280;45528;52.102;5.242;2023-03-04T05:38:03;102197.0;;;12.3;53.44
32452;BME280;45528;52.102;5.242;2023-03-04T05:39:39;102196.0;;;12.26;53.87
32452;BME280;45528;52.102;5.242;2023-03-04T05:41:15;102198.0;;;12.24;53.93
32452;BME280;45528;52.102;5.242;2023-03-04T05:44:28;102199.0;;;12.18;54.17
32452;BME280;45528;52.102;5.242;2023-03-04T05:46:04;102202.0;;;12.15;54.2
32452;BME280;45528;52.102;5.242;2023-03-04T05:47:40;102200.0;;;12.13;54.28
32452;BME280;45528;52.102;5.242;2023-03-04T05:50:53;102202.0;;;12.19;54.03
32452;BME280;45528;52.102;5.242;2023-03-04T05:52:29;102203.0;;;11.94;54.3
32452;BME280;45528;52.102;5.242;2023-03-04T05:54:05;102201.0;;;12.07;54.5
32452;BME280;45528;52.102;5.242;2023-03-04T05:55:45;102200.0;;;12.08;54.38
32452;BME280;45528;52.102;5.242;2023-03-04T05:58:57;102198.0;;;12.06;54.57
32452;BME280;45528;52.102;5.242;2023-03-04T06:00:34;102196.0;;;12.15;54.32
32452;BME280;45528;52.102;5.242;2023-03-04T06:02:10;102197.0;;;12.11;54.34
32452;BME280;45528;52.102;5.242;2023-03-04T06:05:23;102196.0;;;12.15;54.22
32452;BME280;45528;52.102;5.242;2023-03-04T06:06:59;102194.0;;;11.6;55.13
32452;BME280;45528;52.102;5.242;2023-03-04T06:08:35;102197.0;;;12.23;54.1
32452;BME280;45528;52.102;5.242;2023-03-04T06:11:50;102197.0;;;12.24;54.0
32452;BME280;45528;52.102;5.242;2023-03-04T06:13:27;102196.0;;;12.17;54.32
32452;BME280;45528;52.102;5.242;2023-03-04T06:15:03;102190.0;;;12.14;54.32
32452;BME280;45528;52.102;5.242;2023-03-04T06:16:40;102190.0;;;12.14;54.23
32452;BME280;45528;52.102;5.242;2023-03-04T06:19:52;102195.0;;;12.2;54.2
32452;BME280;45528;52.102;5.242;2023-03-04T06:21:29;102195.0;;;11.94;54.61
32452;BME280;45528;52.102;5.242;2023-03-04T06:23:05;102192.0;;;12.29;54.01
32452;BME280;45528;52.102;5.242;2023-03-04T06:26:18;102194.0;;;12.25;54.12
32452;BME280;45528;52.102;5.242;2023-03-04T06:27:54;102199.0;;;12.27;54.11
32452;BME280;45528;52.102;5.242;2023-03-04T06:29:30;102193.0;;;12.08;54.51
32452;BME280;45528;52.102;5.242;2023-03-04T06:32:44;102191.0;;;12.04;54.75
32452;BME280;45528;52.102;5.242;2023-03-04T06:34:20;102195.0;;;12.3;54.02
32452;BME280;45528;52.102;5.242;2023-03-04T06:35:56;102196.0;;;12.36;53.83
32452;BME280;45528;52.102;5.242;2023-03-04T06:37:32;102197.0;;;12.33;53.98
32452;BME280;45528;52.102;5.242;2023-03-04T06:40:45;102197.0;;;12.13;54.5
32452;BME280;45528;52.102;5.242;2023-03-04T06:42:21;102201.0;;;12.32;54.08
32452;BME280;45528;52.102;5.242;2023-03-04T06:43:57;102200.0;;;12.13;54.7
32452;BME280;45528;52.102;5.242;2023-03-04T06:47:09;102201.0;;;12.32;54.4
32452;BME280;45528;52.102;5.242;2023-03-04T06:48:45;102202.0;;;12.37;54.09
32452;BME280;45528;52.102;5.242;2023-03-04T06:50:22;102203.0;;;12.45;54.03
32452;BME280;45528;52.102;5.242;2023-03-04T06:53:35;102202.0;;;12.44;54.38
32452;BME280;45528;52.102;5.242;2023-03-04T06:55:12;102202.0;;;12.43;54.5
32452;BME280;45528;52.102;5.242;2023-03-04T06:56:48;102200.0;;;12.04;54.95
32452;BME280;45528;52.102;5.242;2023-03-04T06:58:24;102205.0;;;12.37;55.02
32452;BME280;45528;52.102;5.242;2023-03-04T07:01:37;102206.0;;;12.35;54.94
32452;BME280;45528;52.102;5.242;2023-03-04T07:03:13;102209.0;;;12.43;54.82
32452;BME280;45528;52.102;5.242;2023-03-04T07:04:49;102209.0;;;12.33;55.18
32452;BME280;45528;52.102;5.242;2023-03-04T07:08:03;102212.0;;;12.41;55.08
32452;BME280;45528;52.102;5.242;2023-03-04T07:09:39;102215.0;;;12.47;54.88
32452;BME280;45528;52.102;5.242;2023-03-04T07:11:16;102218.0;;;12.49;54.78
32452;BME280;45528;52.102;5.242;2023-03-04T07:14:31;102219.0;;;12.46;55.07
32452;BME280;45528;52.102;5.242;2023-03-04T07:16:10;102221.0;;;12.49;55.46
32452;BME280;45528;52.102;5.242;2023-03-04T07:17:47;102216.0;;;12.21;56.61
32452;BME280;45528;52.102;5.242;2023-03-04T07:19:23;102222.0;;;12.35;56.3
32452;BME280;45528;52.102;5.242;2023-03-04T07:22:36;102222.0;;;12.48;56.37
32452;BME280;45528;52.102;5.242;2023-03-04T07:24:12;102221.0;;;12.36;56.76
32452;BME280;45528;52.102;5.242;2023-03-04T07:25:50;102214.0;;;12.32;56.85
32452;BME280;45528;52.102;5.242;2023-03-04T07:29:03;102214.0;;;12.11;57.12
32452;BME280;45528;52.102;5.242;2023-03-04T07:30:39;102215.0;;;12.42;56.87
32452;BME280;45528;52.102;5.242;2023-03-04T07:32:16;102216.0;;;12.43;56.98
32452;BME280;45528;52.102;5.242;2023-03-04T07:35:32;102216.0;;;12.3;57.37
32452;BME280;45528;52.102;5.242;2023-03-04T07:37:08;102220.0;;;12.28;57.37
32452;BME280;45528;52.102;5.242;2023-03-04T07:38:45;102224.0;;;12.46;57.06
32452;BME280;45528;52.102;5.242;2023-03-04T07:40:22;102219.0;;;12.45;57.0
32452;BME280;45528;52.102;5.242;2023-03-04T07:43:35;102221.0;;;12.45;56.9
32452;BME280;45528;52.102;5.242;2023-03-04T07:45:11;102216.0;;;12.3;56.85
32452;BME280;45528;52.102;5.242;2023-03-04T07:46:47;102219.0;;;12.32;56.79
32452;BME280;45528;52.102;5.242;2023-03-04T07:49:59;102227.0;;;12.51;56.29
32452;BME280;45528;52.102;5.242;2023-03-04T07:51:36;102226.0;;;12.52;56.16
32452;BME280;45528;52.102;5.242;2023-03-04T07:53:13;102227.0;;;12.89;55.32
32452;BME280;45528;52.102;5.242;2023-03-04T07:56:26;102228.0;;;13.09;55.1
32452;BME280;45528;52.102;5.242;2023-03-04T07:58:04;102227.0;;;13.13;54.89
32452;BME280;45528;52.102;5.242;2023-03-04T07:59:40;102228.0;;;13.22;54.27
32452;BME280;45528;52.102;5.242;2023-03-04T08:01:19;102231.0;;;13.16;54.61
32452;BME280;45528;52.102;5.242;2023-03-04T08:04:32;102230.0;;;13.31;54.07
32452;BME280;45528;52.102;5.242;2023-03-04T08:06:10;102228.0;;;13.32;53.89
32452;BME280;45528;52.102;5.242;2023-03-04T08:07:47;102228.0;;;13.29;54.13
32452;BME280;45528;52.102;5.242;2023-03-04T08:10:59;102230.0;;;13.41;53.75
32452;BME280;45528;52.102;5.242;2023-03-04T08:12:39;102234.0;;;13.35;53.98
32452;BME280;45528;52.102;5.242;2023-03-04T08:14:15;102240.0;;;13.35;53.87
32452;BME280;45528;52.102;5.242;2023-03-04T08:15:54;102243.0;;;13.16;54.24
32452;BME280;45528;52.102;5.242;2023-03-04T08:19:07;102239.0;;;13.07;54.76
32452;BME280;45528;52.102;5.242;2023-03-04T08:20:44;102243.0;;;13.15;54.72
32452;BME280;45528;52.102;5.242;2023-03-04T08:22:21;102246.0;;;12.78;54.76
32452;BME280;45528;52.102;5.242;2023-03-04T08:25:38;102246.0;;;12.99;55.15
32452;BME280;45528;52.102;5.242;2023-03-04T08:27:14;102244.0;;;13.24;55.08
32452;BME280;45528;52.102;5.242;2023-03-04T08:28:51;102245.0;;;13.22;55.28
32452;BME280;45528;52.102;5.242;2023-03-04T08:30:27;102243.0;;;13.14;54.91
32452;BME280;45528;52.102;5.242;2023-03-04T08:33:39;102244.0;;;13.3;54.82
32452;BME280;45528;52.102;5.242;2023-03-04T08:35:16;102246.0;;;13.26;54.83
32452;BME280;45528;52.102;5.242;2023-03-04T08:36:52;102245.0;;;13.04;54.85
32452;BME280;45528;52.102;5.242;2023-03-04T08:40:06;102249.0;;;13.54;53.9
32452;BME280;45528;52.102;5.242;2023-03-04T08:41:44;102251.0;;;13.64;53.93
32452;BME280;45528;52.102;5.242;2023-03-04T08:43:23;102247.0;;;13.41;54.22
32452;BME280;45528;52.102;5.242;2023-03-04T08:46:36;102247.0;;;13.58;53.93
32452;BME280;45528;52.102;5.242;2023-03-04T08:48:13;102246.0;;;13.67;53.48
32452;BME280;45528;52.102;5.242;2023-03-04T08:49:52;102245.0;;;13.79;53.5
32452;BME280;45528;52.102;5.242;2023-03-04T08:51:28;102242.0;;;13.72;53.81
32452;BME280;45528;52.102;5.242;2023-03-04T08:54:40;102241.0;;;13.4;54.49
32452;BME280;45528;52.102;5.242;2023-03-04T08:56:16;102243.0;;;13.89;53.11
32452;BME280;45528;52.102;5.242;2023-03-04T08:57:54;102241.0;;;13.98;53.11
32452;BME280;45528;52.102;5.242;2023-03-04T09:01:07;102238.0;;;13.77;53.98
32452;BME280;45528;52.102;5.242;2023-03-04T09:02:44;102240.0;;;13.88;53.85
32452;BME280;45528;52.102;5.242;2023-03-04T09:04:20;102239.0;;;13.95;53.65
32452;BME280;45528;52.102;5.242;2023-03-04T09:07:32;102238.0;;;13.87;54.03
32452;BME280;45528;52.102;5.242;2023-03-04T09:09:09;102241.0;;;13.87;54.08
32452;BME280;45528;52.102;5.242;2023-03-04T09:10:45;102239.0;;;13.65;54.85
32452;BME280;45528;52.102;5.242;2023-03-04T09:12:22;102239.0;;;13.48;55.29
32452;BME280;45528;52.102;5.242;2023-03-04T09:15:34;102239.0;;;13.6;56.06
32452;BME280;45528;52.102;5.242;2023-03-04T09:17:10;102234.0;;;13.62;56.8
32452;BME280;45528;52.102;5.242;2023-03-04T09:18:47;102238.0;;;13.61;57.38
32452;BME280;45528;52.102;5.242;2023-03-04T09:21:59;102239.0;;;13.22;58.47
32452;BME280;45528;52.102;5.242;2023-03-04T09:23:37;102235.0;;;13.33;58.12
32452;BME280;45528;52.102;5.242;2023-03-04T09:25:14;102236.0;;;13.36;58.81
32452;BME280;45528;52.102;5.242;2023-03-04T09:28:26;102234.0;;;13.42;59.05
32452;BME280;45528;52.102;5.242;2023-03-04T09:30:03;102238.0;;;13.47;58.77
32452;BME280;45528;52.102;5.242;2023-03-04T09:31:40;102239.0;;;13.51;59.52
32452;BME280;45528;52.102;5.242;2023-03-04T09:33:16;102237.0;;;13.36;59.44
32452;BME280;45528;52.102;5.242;2023-03-04T09:36:29;102241.0;;;13.5;59.5
32452;BME280;45528;52.102;5.242;2023-03-04T09:38:06;102243.0;;;13.64;59.57
32452;BME280;45528;52.102;5.242;2023-03-04T09:39:42;102239.0;;;13.65;59.17
32452;BME280;45528;52.102;5.242;2023-03-04T09:43:01;102232.0;;;13.83;59.75
32452;BME280;45528;52.102;5.242;2023-03-04T09:44:40;102231.0;;;13.88;60.15
32452;BME280;45528;52.102;5.242;2023-03-04T09:46:21;102233.0;;;14.05;59.33
32452;BME280;45528;52.102;5.242;2023-03-04T09:48:04;102231.0;;;13.92;60.17
32452;BME280;45528;52.102;5.242;2023-03-04T09:51:40;102227.0;;;14.25;58.86
32452;BME280;45528;52.102;5.242;2023-03-04T09:53:21;102226.0;;;14.44;58.23
32452;BME280;45528;52.102;5.242;2023-03-04T09:55:15;102219.0;;;14.56;58.12
32452;BME280;45528;52.102;5.242;2023-03-04T09:56:59;102222.0;;;14.5;56.92
32452;BME280;45528;52.102;5.242;2023-03-04T09:58:47;102224.0;;;14.14;57.09
32452;BME280;45528;52.102;5.242;2023-03-04T10:00:32;102225.0;;;14.43;56.6
32452;BME280;45528;52.102;5.242;2023-03-04T10:03:58;102227.0;;;14.34;56.9
32452;BME280;45528;52.102;5.242;2023-03-04T10:05:41;102221.0;;;13.89;57.66
32452;BME280;45528;52.102;5.242;2023-03-04T10:07:23;102221.0;;;14.12;57.85
32452;BME280;45528;52.102;5.242;2023-03-04T10:09:13;102218.0;;;14.14;57.41
32452;BME280;45528;52.102;5.242;2023-03-04T10:12:33;102221.0;;;14.03;57.9
32452;BME280;45528;52.102;5.242;2023-03-04T10:14:24;102225.0;;;14.23;56.91
32452;BME280;45528;52.102;5.242;2023-03-04T10:16:12;102217.0;;;13.9;57.87
32452;BME280;45528;52.102;5.242;2023-03-04T10:17:55;102217.0;;;14.23;56.85
32452;BME280;45528;52.102;5.242;2023-03-04T10:19:50;102209.0;;;13.94;58.26
32452;BME280;45528;52.102;5.242;2023-03-04T10:21:31;102208.0;;;14.24;56.57
32452;BME280;45528;52.102;5.242;2023-03-04T10:24:55;102205.0;;;14.16;56.33
32452;BME280;45528;52.102;5.242;2023-03-04T10:26:32;102199.0;;;14.57;56.05
32452;BME280;45528;52.102;5.242;2023-03-04T10:28:14;102192.0;;;14.9;54.46
32452;BME280;45528;52.102;5.242;2023-03-04T10:29:51;102189.0;;;15.24;53.62
32452;BME280;45528;52.102;5.242;2023-03-04T10:33:11;102188.0;;;15.2;53.27
32452;BME280;45528;52.102;5.242;2023-03-04T10:34:48;102194.0;;;15.25;52.52
32452;BME280;45528;52.102;5.242;2023-03-04T10:36:35;102192.0;;;14.44;54.34
32452;BME280;45528;52.102;5.242;2023-03-04T10:38:21;102197.0;;;14.61;53.77
32452;BME280;45528;52.102;5.242;2023-03-04T10:41:41;102197.0;;;14.73;53.9
32452;BME280;45528;52.102;5.242;2023-03-04T10:43:20;102198.0;;;14.62;53.59
32452;BME280;45528;52.102;5.242;2023-03-04T10:44:58;102207.0;;;14.53;53.55
32452;BME280;45528;52.102;5.242;2023-03-04T10:46:37;102214.0;;;14.39;54.29
32452;BME280;45528;52.102;5.242;2023-03-04T10:49:57;102209.0;;;14.32;55.69
32452;BME280;45528;52.102;5.242;2023-03-04T10:51:41;102214.0;;;14.3;56.58
32452;BME280;45528;52.102;5.242;2023-03-04T10:53:27;102206.0;;;14.48;57.43
32452;BME280;45528;52.102;5.242;2023-03-04T10:55:14;102213.0;;;14.43;58.31
32452;BME280;45528;52.102;5.242;2023-03-04T10:58:32;102216.0;;;14.3;58.67
32452;BME280;45528;52.102;5.242;2023-03-04T11:00:24;102213.0;;;14.23;59.05
32452;BME280;45528;52.102;5.242;2023-03-04T11:02:16;102212.0;;;14.34;59.29
32452;BME280;45528;52.102;5.242;2023-03-04T11:03:56;102207.0;;;14.28;59.92
32452;BME280;45528;52.102;5.242;2023-03-04T11:05:32;102205.0;;;14.37;60.32